Time;durP1;ratioP1;P1;durP2;ratioP2;P2;SDS_P1;SDS_P2;PMS_P1;PMS_P2;Temp;Humidity;BMP_temperature;BMP_pressure;BME280_temperature;BME280_humidity;BME280_pressure;Samples;Min_cycle;Max_cycle;Signal;HPM_P1;HPM_P2
2022/11/10 00:01:10;;;;;;;;;;;;;;;15.37;62.25;99854.19;4472738;32;33311;-66
2022/11/10 00:03:57;;;;;;;;;;;;;;;15.61;61.72;99859.16;4471988;32;34072;-66
2022/11/10 00:06:45;;;;;;;;;;;;;;;15.70;61.39;99870.97;4468063;31;38682;-67
2022/11/10 00:09:31;;;;;;;;;;;;;;;15.71;61.22;99873.50;4469561;32;34912;-67
2022/11/10 00:12:16;;;;;;;;;;;;;;;15.74;61.28;99875.06;4474594;32;33096;-67
2022/11/10 00:18:07;;;;;;;;;;;;;;;15.73;61.29;99876.03;4463746;32;32982;-65
2022/11/10 00:20:52;;;;;;;;;;;;;;;15.73;61.19;99881.44;4461333;32;35328;-67
2022/11/10 00:23:38;;;;;;;;;;;;;;;15.63;61.61;99878.72;4471771;32;34035;-66
2022/11/10 00:26:24;;;;;;;;;;;;;;;15.74;61.37;99889.41;4474660;32;33567;-66
2022/11/10 00:29:10;;;;;;;;;;;;;;;15.72;61.40;99880.59;4476970;32;34885;-66
2022/11/10 00:31:56;;;;;;;;;;;;;;;15.79;60.90;99880.88;4477120;32;34011;-67
2022/11/10 00:34:41;;;;;;;;;;;;;;;15.78;60.93;99888.13;4477387;32;33373;-66
2022/11/10 00:37:27;;;;;;;;;;;;;;;15.75;61.10;99884.88;4469700;32;34326;-67
2022/11/10 00:40:12;;;;;;;;;;;;;;;15.73;61.12;99876.94;4471315;32;34097;-65
2022/11/10 00:42:58;;;;;;;;;;;;;;;15.73;61.22;99887.72;4466777;32;34227;-65
2022/11/10 00:45:45;;;;;;;;;;;;;;;15.74;61.26;99873.22;4479164;32;33716;-66
2022/11/10 00:48:30;;;;;;;;;;;;;;;15.78;61.16;99876.47;4477161;32;34377;-66
2022/11/10 00:51:16;;;;;;;;;;;;;;;15.80;60.97;99878.03;4474215;32;34440;-66
2022/11/10 00:54:02;;;;;;;;;;;;;;;15.78;61.09;99879.19;4472908;32;34413;-66
2022/11/10 00:56:48;;;;;;;;;;;;;;;15.77;61.21;99880.19;4475540;32;33431;-65
2022/11/10 00:59:33;;;;;;;;;;;;;;;15.81;61.05;99870.78;4470994;32;33630;-66
2022/11/10 01:02:19;;;;;;;;;;;;;;;15.80;61.07;99869.09;4478586;32;34061;-67
2022/11/10 01:05:05;;;;;;;;;;;;;;;15.81;61.05;99866.25;4473729;32;34144;-67
2022/11/10 01:07:50;;;;;;;;;;;;;;;15.79;61.10;99876.34;4468101;32;33115;-66
2022/11/10 01:10:36;;;;;;;;;;;;;;;15.73;61.46;99870.66;4471034;32;34276;-66
2022/11/10 01:13:22;;;;;;;;;;;;;;;15.81;61.28;99868.09;4465831;32;35425;-66
2022/11/10 01:16:09;;;;;;;;;;;;;;;15.76;61.41;99862.25;4478297;32;34030;-67
2022/11/10 01:19:00;;;;;;;;;;;;;;;15.75;61.55;99869.50;4481868;32;34249;-67
2022/11/10 01:21:46;;;;;;;;;;;;;;;15.82;61.22;99869.78;4476585;32;35763;-67
2022/11/10 01:24:31;;;;;;;;;;;;;;;15.79;61.41;99875.47;4463988;32;35025;-67
2022/11/10 01:27:17;;;;;;;;;;;;;;;15.84;61.21;99867.81;4473491;32;34209;-67
2022/11/10 01:30:03;;;;;;;;;;;;;;;15.81;61.23;99868.94;4471279;32;34457;-66
2022/11/10 01:32:49;;;;;;;;;;;;;;;15.82;61.27;99867.09;4473351;32;35318;-67
2022/11/10 01:35:35;;;;;;;;;;;;;;;15.82;61.43;99883.28;4471010;32;34901;-68
2022/11/10 01:38:20;;;;;;;;;;;;;;;15.83;61.42;99869.66;4470472;32;34251;-66
2022/11/10 01:41:07;;;;;;;;;;;;;;;15.81;61.50;99877.03;4474537;32;32986;-66
2022/11/10 01:43:53;;;;;;;;;;;;;;;15.85;61.27;99880.28;4468142;32;35181;-66
2022/11/10 01:46:38;;;;;;;;;;;;;;;15.74;61.70;99877.78;4473189;32;33967;-68
2022/11/10 01:49:25;;;;;;;;;;;;;;;15.80;61.50;99878.03;4479667;32;35133;-67
2022/11/10 01:52:11;;;;;;;;;;;;;;;15.81;61.54;99873.50;4471211;32;33526;-67
2022/11/10 01:54:57;;;;;;;;;;;;;;;15.76;61.68;99873.06;4470907;32;33926;-67
2022/11/10 01:57:43;;;;;;;;;;;;;;;15.68;61.82;99879.19;4470563;32;34164;-67
2022/11/10 02:00:28;;;;;;;;;;;;;;;15.72;61.93;99883.28;4466377;32;33938;-67
2022/11/10 02:03:33;;;;;;;;;;;;;;;15.73;61.90;99876.94;4473920;32;33481;-68
2022/11/10 02:06:19;;;;;;;;;;;;;;;15.74;61.86;99885.88;4480011;32;33445;-66
2022/11/10 02:09:05;;;;;;;;;;;;;;;15.43;62.77;99883.28;4471972;32;34951;-66
2022/11/10 02:11:50;;;;;;;;;;;;;;;15.64;62.45;99895.78;4465912;32;35394;-67
2022/11/10 02:14:36;;;;;;;;;;;;;;;15.48;62.95;99888.28;4470311;32;33279;-68
2022/11/10 02:17:22;;;;;;;;;;;;;;;15.65;62.31;99892.94;4479600;31;35282;-67
2022/11/10 02:20:09;;;;;;;;;;;;;;;15.57;62.62;99901.75;4461883;32;33965;-68
2022/11/10 02:22:54;;;;;;;;;;;;;;;15.67;62.23;99903.63;4482109;32;35079;-68
2022/11/10 02:25:40;;;;;;;;;;;;;;;15.41;63.14;99903.31;4467690;32;34478;-68
2022/11/10 02:28:26;;;;;;;;;;;;;;;15.59;62.49;99899.75;4470771;32;34960;-69
2022/11/10 02:31:12;;;;;;;;;;;;;;;15.50;62.62;99902.44;4467006;32;35425;-68
2022/11/10 02:33:57;;;;;;;;;;;;;;;15.33;63.46;99907.56;4467382;32;34067;-68
2022/11/10 02:36:43;;;;;;;;;;;;;;;15.48;62.85;99908.00;4473186;32;32091;-68
2022/11/10 02:39:29;;;;;;;;;;;;;;;15.54;62.56;99910.13;4465633;32;34078;-70
2022/11/10 02:42:14;;;;;;;;;;;;;;;15.63;62.14;99905.72;4472299;32;35076;-66
2022/11/10 02:45:00;;;;;;;;;;;;;;;15.66;62.16;99912.66;4477888;32;33412;-68
2022/11/10 02:47:46;;;;;;;;;;;;;;;15.72;61.99;99909.44;4468006;32;33286;-71
2022/11/10 02:50:32;;;;;;;;;;;;;;;15.57;62.55;99909.84;4470259;32;34846;-68
2022/11/10 02:53:18;;;;;;;;;;;;;;;15.67;62.22;99912.56;4466380;32;35592;-67
2022/11/10 02:56:04;;;;;;;;;;;;;;;15.72;61.89;99912.97;4471670;32;33978;-67
2022/11/10 02:58:50;;;;;;;;;;;;;;;15.61;62.38;99921.22;4470887;32;33387;-69
2022/11/10 03:01:36;;;;;;;;;;;;;;;15.65;62.35;99927.16;4477357;32;34091;-68
2022/11/10 03:04:22;;;;;;;;;;;;;;;15.60;62.53;99925.75;4468266;32;34026;-67
2022/11/10 03:07:08;;;;;;;;;;;;;;;15.68;62.32;99938.56;4468251;32;34238;-67
2022/11/10 03:09:54;;;;;;;;;;;;;;;15.77;61.82;99939.56;4475216;32;34191;-67
2022/11/10 03:12:39;;;;;;;;;;;;;;;15.71;61.70;99942.81;4481354;32;33759;-67
2022/11/10 03:15:25;;;;;;;;;;;;;;;15.68;62.03;99946.66;4468482;32;34413;-68
2022/11/10 03:18:11;;;;;;;;;;;;;;;15.61;62.22;99946.34;4470793;32;34407;-68
2022/11/10 03:20:56;;;;;;;;;;;;;;;15.63;62.13;99945.34;4473754;32;34365;-67
2022/11/10 03:23:42;;;;;;;;;;;;;;;15.34;63.29;99955.13;4468143;32;35301;-68
2022/11/10 03:26:28;;;;;;;;;;;;;;;15.38;63.35;99953.00;4479625;32;35381;-68
2022/11/10 03:29:14;;;;;;;;;;;;;;;15.06;64.47;99954.09;4479982;32;33963;-67
2022/11/10 03:32:00;;;;;;;;;;;;;;;15.24;63.99;99950.69;4468521;32;33264;-69
2022/11/10 03:34:46;;;;;;;;;;;;;;;15.41;63.25;99946.44;4467436;32;34243;-68
2022/11/10 03:37:31;;;;;;;;;;;;;;;15.38;63.08;99951.16;4475600;32;34345;-68
2022/11/10 03:40:17;;;;;;;;;;;;;;;15.20;63.38;99957.38;4478873;32;34015;-68
2022/11/10 03:43:03;;;;;;;;;;;;;;;15.35;63.21;99955.97;4474763;32;33561;-67
2022/11/10 03:45:49;;;;;;;;;;;;;;;15.40;62.96;99960.94;4463265;32;34647;-67
2022/11/10 03:48:35;;;;;;;;;;;;;;;15.37;62.85;99962.06;4472418;32;34135;-69
2022/11/10 03:51:21;;;;;;;;;;;;;;;15.33;62.84;99971.44;4467299;32;34340;-67
2022/11/10 03:54:06;;;;;;;;;;;;;;;14.98;63.83;99964.69;4481257;32;33324;-69
2022/11/10 03:56:53;;;;;;;;;;;;;;;15.13;63.44;99965.16;4471648;32;35025;-67
2022/11/10 03:59:38;;;;;;;;;;;;;;;15.03;63.86;99969.69;4478765;32;35503;-68
2022/11/10 04:02:24;;;;;;;;;;;;;;;15.08;63.39;99976.34;4474596;32;34033;-69
2022/11/10 04:17:30;;;;;;;;;;;;;;;15.04;63.63;99991.09;4473557;32;32130;-66
2022/11/10 04:20:15;;;;;;;;;;;;;;;14.95;64.16;99991.91;4468616;32;33984;-68
2022/11/10 04:26:28;;;;;;;;;;;;;;;14.81;64.29;99997.69;4476984;32;34404;-68
2022/11/10 04:29:14;;;;;;;;;;;;;;;15.12;63.56;99998.50;4480973;32;34192;-70
2022/11/10 04:32:00;;;;;;;;;;;;;;;15.19;63.16;99998.81;4466038;32;34075;-68
2022/11/10 04:34:46;;;;;;;;;;;;;;;15.27;62.46;99994.41;4466959;32;34451;-71
2022/11/10 04:37:31;;;;;;;;;;;;;;;15.26;62.62;99990.03;4466268;32;33789;-68
2022/11/10 04:40:17;;;;;;;;;;;;;;;15.05;63.13;99995.50;4463950;32;32098;-69
2022/11/10 04:43:03;;;;;;;;;;;;;;;15.04;63.00;99993.78;4471197;32;33737;-68
2022/11/10 04:45:48;;;;;;;;;;;;;;;15.14;62.78;99997.38;4472523;32;34776;-68
2022/11/10 04:48:34;;;;;;;;;;;;;;;15.18;62.50;100002.47;4475950;32;34119;-69
2022/11/10 04:51:21;;;;;;;;;;;;;;;15.08;62.80;100005.16;4468985;32;33182;-67
2022/11/10 04:54:07;;;;;;;;;;;;;;;14.98;62.99;100006.97;4470673;32;34835;-67
2022/11/10 04:56:52;;;;;;;;;;;;;;;14.94;63.45;100013.63;4473119;32;34203;-68
2022/11/10 04:59:38;;;;;;;;;;;;;;;14.92;63.37;100019.13;4475792;32;33879;-69
2022/11/10 05:02:24;;;;;;;;;;;;;;;14.96;63.27;100030.50;4470271;32;34119;-71
2022/11/10 05:05:10;;;;;;;;;;;;;;;14.99;62.81;100031.09;4474226;32;34885;-68
2022/11/10 05:07:56;;;;;;;;;;;;;;;14.95;62.85;100043.13;4470777;32;35299;-70
2022/11/10 05:10:42;;;;;;;;;;;;;;;14.79;63.67;100038.22;4473693;32;34028;-67
2022/11/10 05:13:28;;;;;;;;;;;;;;;15.02;63.11;100036.19;4474207;32;32218;-70
2022/11/10 05:16:13;;;;;;;;;;;;;;;15.06;62.64;100037.66;4471530;32;33759;-69
2022/11/10 05:18:59;;;;;;;;;;;;;;;14.97;62.59;100037.63;4463822;32;34037;-68
2022/11/10 05:21:45;;;;;;;;;;;;;;;14.70;63.71;100044.41;4471959;32;33937;-68
2022/11/10 05:24:30;;;;;;;;;;;;;;;14.73;63.61;100051.38;4467714;32;33375;-69
2022/11/10 05:27:16;;;;;;;;;;;;;;;14.86;63.14;100042.12;4466402;32;35138;-69
2022/11/10 05:30:02;;;;;;;;;;;;;;;14.82;63.17;100051.44;4479741;32;35451;-68
2022/11/10 05:32:48;;;;;;;;;;;;;;;14.84;63.30;100051.31;4471230;32;33935;-68
2022/11/10 05:35:34;;;;;;;;;;;;;;;14.93;63.07;100058.59;4467500;32;34502;-68
2022/11/10 05:38:20;;;;;;;;;;;;;;;15.00;62.95;100057.06;4464146;32;34027;-68
2022/11/10 05:41:06;;;;;;;;;;;;;;;15.11;62.41;100061.50;4471804;32;34121;-67
2022/11/10 05:43:52;;;;;;;;;;;;;;;15.10;62.50;100062.50;4466481;32;33925;-67
2022/11/10 05:46:37;;;;;;;;;;;;;;;15.01;62.80;100072.22;4473634;32;34507;-67
2022/11/10 05:49:23;;;;;;;;;;;;;;;14.97;62.87;100072.66;4464999;32;34841;-66
2022/11/10 05:52:09;;;;;;;;;;;;;;;15.06;62.93;100082.62;4464877;32;33365;-67
2022/11/10 05:54:54;;;;;;;;;;;;;;;14.97;62.90;100092.38;4464165;32;34071;-67
2022/11/10 05:57:41;;;;;;;;;;;;;;;14.91;63.37;100085.66;4462565;32;32929;-68
2022/11/10 06:00:27;;;;;;;;;;;;;;;14.83;63.59;100090.88;4466791;32;34101;-69
2022/11/10 06:03:16;;;;;;;;;;;;;;;15.03;63.12;100099.06;4468835;32;34123;-68
2022/11/10 06:06:03;;;;;;;;;;;;;;;14.58;63.75;100100.22;4472722;32;34460;-69
2022/11/10 06:08:49;;;;;;;;;;;;;;;15.05;62.55;100108.72;4464548;32;33568;-68
2022/11/10 06:11:34;;;;;;;;;;;;;;;15.09;62.46;100114.72;4468238;32;35248;-68
2022/11/10 06:14:20;;;;;;;;;;;;;;;14.83;63.48;100109.75;4471675;32;34259;-68
2022/11/10 06:17:06;;;;;;;;;;;;;;;14.81;63.41;100121.66;4473964;32;33122;-68
2022/11/10 06:19:52;;;;;;;;;;;;;;;15.06;62.81;100129.31;4474615;32;33365;-70
2022/11/10 06:22:37;;;;;;;;;;;;;;;14.81;63.49;100135.97;4468387;32;33961;-68
2022/11/10 06:25:23;;;;;;;;;;;;;;;15.28;61.94;100140.88;4475985;32;34118;-68
2022/11/10 06:28:09;;;;;;;;;;;;;;;15.08;62.61;100143.47;4474762;32;35132;-68
2022/11/10 06:30:55;;;;;;;;;;;;;;;15.03;62.34;100144.91;4471422;32;34127;-68
2022/11/10 06:33:41;;;;;;;;;;;;;;;14.84;62.80;100148.31;4476051;32;35223;-69
2022/11/10 06:36:27;;;;;;;;;;;;;;;14.92;62.59;100145.81;4480730;32;35030;-68
2022/11/10 06:39:13;;;;;;;;;;;;;;;15.27;61.66;100156.22;4476693;32;32812;-67
2022/11/10 06:41:59;;;;;;;;;;;;;;;15.05;62.54;100151.00;4469084;32;32967;-67
2022/11/10 06:44:44;;;;;;;;;;;;;;;15.15;62.32;100159.97;4480600;32;35252;-68
2022/11/10 06:47:30;;;;;;;;;;;;;;;15.17;62.29;100154.47;4475742;32;34223;-67
2022/11/10 06:50:16;;;;;;;;;;;;;;;15.43;61.39;100171.91;4477679;32;33953;-71
2022/11/10 06:53:02;;;;;;;;;;;;;;;14.77;63.67;100179.50;4473002;32;33333;-67
2022/11/10 06:55:49;;;;;;;;;;;;;;;15.34;61.69;100180.78;4474194;32;33998;-67
2022/11/10 06:58:34;;;;;;;;;;;;;;;15.45;61.20;100191.50;4474118;32;32853;-67
2022/11/10 07:01:25;;;;;;;;;;;;;;;15.24;61.48;100190.69;4469836;32;33098;-69
2022/11/10 07:04:11;;;;;;;;;;;;;;;15.14;61.82;100196.03;4467890;32;33666;-67
2022/11/10 07:07:05;;;;;;;;;;;;;;;14.31;64.40;100196.78;4469537;32;34239;-68
2022/11/10 07:09:51;;;;;;;;;;;;;;;14.96;62.37;100201.19;4477533;32;35101;-67
2022/11/10 07:12:37;;;;;;;;;;;;;;;15.02;62.56;100202.47;4469209;32;34337;-70
2022/11/10 07:15:22;;;;;;;;;;;;;;;14.85;63.25;100212.00;4478422;32;33783;-68
2022/11/10 07:18:08;;;;;;;;;;;;;;;14.89;62.55;100216.16;4467090;32;34183;-69
2022/11/10 07:20:54;;;;;;;;;;;;;;;14.90;62.86;100212.47;4468682;32;34674;-74
2022/11/10 07:23:40;;;;;;;;;;;;;;;14.79;63.15;100212.53;4471372;32;34493;-69
2022/11/10 07:26:26;;;;;;;;;;;;;;;14.23;65.24;100220.81;4472740;32;35131;-68
2022/11/10 07:29:12;;;;;;;;;;;;;;;14.36;64.35;100218.81;4468345;32;34032;-69
2022/11/10 07:31:58;;;;;;;;;;;;;;;14.94;62.72;100223.84;4472346;32;33321;-70
2022/11/10 07:34:44;;;;;;;;;;;;;;;15.03;62.22;100225.75;4477084;32;35161;-71
2022/11/10 07:37:29;;;;;;;;;;;;;;;15.19;61.96;100225.31;4469028;32;33383;-71
2022/11/10 07:40:16;;;;;;;;;;;;;;;14.94;62.75;100224.69;4471111;32;34179;-70
2022/11/10 07:43:01;;;;;;;;;;;;;;;14.80;63.42;100233.97;4477616;32;34224;-69
2022/11/10 07:45:48;;;;;;;;;;;;;;;15.18;61.97;100243.28;4477548;32;34866;-70
2022/11/10 07:48:34;;;;;;;;;;;;;;;14.69;63.69;100242.09;4471505;32;32160;-68
2022/11/10 07:51:19;;;;;;;;;;;;;;;15.22;61.88;100246.59;4472038;32;34188;-68
2022/11/10 07:54:05;;;;;;;;;;;;;;;15.30;61.93;100246.78;4474277;32;34391;-69
2022/11/10 07:56:51;;;;;;;;;;;;;;;15.13;62.15;100251.78;4483256;32;33008;-68
2022/11/10 07:59:37;;;;;;;;;;;;;;;14.96;62.16;100249.69;4481426;32;33569;-68
2022/11/10 08:02:23;;;;;;;;;;;;;;;14.70;63.35;100248.31;4474017;32;34225;-70
2022/11/10 08:05:08;;;;;;;;;;;;;;;14.07;65.13;100246.28;4470358;32;34751;-69
2022/11/10 08:07:54;;;;;;;;;;;;;;;14.62;63.88;100249.84;4466804;32;34265;-68
2022/11/10 08:10:40;;;;;;;;;;;;;;;15.13;62.34;100262.56;4482161;32;32697;-69
2022/11/10 08:13:25;;;;;;;;;;;;;;;14.76;63.32;100267.53;4474684;32;34124;-68
2022/11/10 08:16:11;;;;;;;;;;;;;;;14.61;63.81;100274.22;4469904;32;33213;-70
2022/11/10 08:18:57;;;;;;;;;;;;;;;14.63;63.78;100278.47;4463158;32;32697;-68
2022/11/10 08:21:43;;;;;;;;;;;;;;;15.11;62.06;100277.16;4477909;32;34305;-69
2022/11/10 08:24:29;;;;;;;;;;;;;;;15.01;62.48;100282.47;4478165;32;34503;-68
2022/11/10 08:27:14;;;;;;;;;;;;;;;15.23;61.35;100278.81;4472780;32;34150;-68
2022/11/10 08:30:00;;;;;;;;;;;;;;;14.82;62.77;100269.72;4472630;32;32619;-68
2022/11/10 08:32:46;;;;;;;;;;;;;;;14.89;62.71;100270.03;4468967;32;34487;-69
2022/11/10 08:35:34;;;;;;;;;;;;;;;15.08;62.06;100278.28;4469311;32;35379;-71
2022/11/10 08:38:20;;;;;;;;;;;;;;;15.00;62.49;100285.31;4467738;32;33725;-71
2022/11/10 08:41:06;;;;;;;;;;;;;;;14.76;62.37;100291.78;4482802;32;35202;-68
2022/11/10 08:43:52;;;;;;;;;;;;;;;14.58;62.41;100296.88;4474253;32;34507;-70
2022/11/10 08:46:38;;;;;;;;;;;;;;;14.36;63.45;100308.53;4479115;32;32973;-70
2022/11/10 08:49:23;;;;;;;;;;;;;;;14.29;63.08;100320.78;4479779;32;33951;-68
2022/11/10 08:52:10;;;;;;;;;;;;;;;14.11;63.37;100323.09;4475480;32;34550;-73
2022/11/10 08:54:55;;;;;;;;;;;;;;;14.26;63.14;100326.41;4467146;32;33435;-68
2022/11/10 08:57:41;;;;;;;;;;;;;;;14.62;61.71;100337.88;4467690;32;33453;-68
2022/11/10 09:00:27;;;;;;;;;;;;;;;14.57;62.13;100346.31;4472206;32;33008;-70
2022/11/10 09:03:17;;;;;;;;;;;;;;;14.73;61.98;100345.06;4475051;32;33833;-69
2022/11/10 09:06:04;;;;;;;;;;;;;;;14.77;62.55;100343.84;4477553;32;33231;-69
2022/11/10 09:08:50;;;;;;;;;;;;;;;14.56;62.58;100339.22;4469090;32;35061;-69
2022/11/10 09:11:35;;;;;;;;;;;;;;;14.86;61.00;100337.69;4477060;32;34311;-68
2022/11/10 09:14:21;;;;;;;;;;;;;;;14.19;62.43;100342.22;4446631;32;968197;-69
2022/11/10 09:17:07;;;;;;;;;;;;;;;14.27;62.76;100349.66;4480472;32;33529;-67
2022/11/10 09:19:53;;;;;;;;;;;;;;;14.60;60.79;100356.00;4467845;32;32894;-68
2022/11/10 09:22:39;;;;;;;;;;;;;;;14.06;62.37;100363.00;4468759;32;33927;-67
2022/11/10 09:25:24;;;;;;;;;;;;;;;14.67;61.77;100358.09;4479982;32;34887;-70
2022/11/10 09:28:11;;;;;;;;;;;;;;;14.53;62.30;100363.72;4470938;32;33023;-68
2022/11/10 09:30:56;;;;;;;;;;;;;;;14.06;63.24;100360.31;4471348;32;34192;-68
2022/11/10 09:33:42;;;;;;;;;;;;;;;13.96;63.59;100368.28;4470827;32;34337;-71
2022/11/10 09:36:28;;;;;;;;;;;;;;;14.36;62.96;100365.06;4482114;32;35160;-71
2022/11/10 09:39:14;;;;;;;;;;;;;;;13.86;64.14;100367.25;4469349;32;32815;-71
2022/11/10 09:42:00;;;;;;;;;;;;;;;14.54;62.28;100372.66;4468608;32;34335;-71
2022/11/10 09:44:50;;;;;;;;;;;;;;;14.21;63.72;100371.69;4464945;32;32854;-71
2022/11/10 09:47:56;;;;;;;;;;;;;;;14.03;64.32;100379.41;4478781;32;34037;-71
2022/11/10 09:50:46;;;;;;;;;;;;;;;14.01;64.57;100378.66;4459673;32;34662;-71
2022/11/10 09:53:35;;;;;;;;;;;;;;;14.31;63.29;100382.56;4466799;32;34435;-72
2022/11/10 09:56:26;;;;;;;;;;;;;;;14.73;61.79;100391.72;4469901;32;34528;-72
2022/11/10 09:59:15;;;;;;;;;;;;;;;14.38;62.64;100389.16;4461296;32;33980;-71
2022/11/10 10:02:10;;;;;;;;;;;;;;;14.91;61.60;100392.06;4458926;32;33587;-70
2022/11/10 10:05:15;;;;;;;;;;;;;;;15.23;61.12;100396.63;4473359;32;34947;-71
2022/11/10 10:08:00;;;;;;;;;;;;;;;14.76;62.27;100412.19;4472622;32;34208;-71
2022/11/10 10:10:48;;;;;;;;;;;;;;;15.18;61.19;100405.06;4478624;32;34074;-71
2022/11/10 10:13:52;;;;;;;;;;;;;;;14.82;62.60;100411.69;4465191;32;31905;-71
2022/11/10 10:16:57;;;;;;;;;;;;;;;15.35;61.05;100411.78;4476419;32;33803;-72
2022/11/10 10:19:49;;;;;;;;;;;;;;;14.57;62.95;100405.59;4468993;32;35040;-71
2022/11/10 10:22:41;;;;;;;;;;;;;;;14.47;64.25;100414.50;4469103;32;33324;-71
2022/11/10 10:25:26;;;;;;;;;;;;;;;14.73;63.33;100409.75;4470243;32;33252;-71
2022/11/10 10:28:18;;;;;;;;;;;;;;;14.23;64.72;100406.56;4467501;32;33942;-71
2022/11/10 10:31:23;;;;;;;;;;;;;;;14.86;63.01;100411.31;4474226;32;34196;-70
2022/11/10 10:34:16;;;;;;;;;;;;;;;15.02;62.72;100405.50;4471246;32;34587;-72
2022/11/10 10:37:02;;;;;;;;;;;;;;;15.41;61.34;100410.37;4470769;32;32408;-72
2022/11/10 10:39:48;;;;;;;;;;;;;;;15.51;61.00;100405.94;4474584;32;33889;-73
2022/11/10 10:42:35;;;;;;;;;;;;;;;15.49;60.70;100416.84;4476314;32;35350;-71
2022/11/10 10:45:23;;;;;;;;;;;;;;;15.24;60.64;100419.91;4476298;32;35414;-71
2022/11/10 10:48:26;;;;;;;;;;;;;;;15.79;59.48;100412.53;4477378;32;33599;-72
2022/11/10 10:51:28;;;;;;;;;;;;;;;15.37;61.52;100418.72;4477286;32;35905;-71
2022/11/10 10:54:25;;;;;;;;;;;;;;;14.96;61.77;100419.50;4473727;32;34307;-72
2022/11/10 10:57:37;;;;;;;;;;;;;;;15.73;59.98;100410.37;4472356;32;33014;-71
2022/11/10 11:00:24;;;;;;;;;;;;;;;16.27;58.71;100414.66;4469138;32;33336;-71
2022/11/10 11:03:18;;;;;;;;;;;;;;;15.52;60.32;100421.97;4474782;32;34358;-71
2022/11/10 11:06:05;;;;;;;;;;;;;;;15.51;59.89;100417.59;4473603;32;35485;-68
2022/11/10 11:08:55;;;;;;;;;;;;;;;14.87;61.83;100428.34;4470460;32;35223;-68
2022/11/10 11:11:45;;;;;;;;;;;;;;;15.16;61.10;100428.62;4470789;32;32073;-68
2022/11/10 11:14:31;;;;;;;;;;;;;;;15.73;60.22;100429.25;4467259;32;34286;-70
2022/11/10 11:17:18;;;;;;;;;;;;;;;15.58;60.19;100437.66;4471571;31;34707;-70
2022/11/10 11:20:08;;;;;;;;;;;;;;;16.22;57.81;100443.94;4474791;32;34962;-70
2022/11/10 11:22:59;;;;;;;;;;;;;;;16.36;57.30;100446.28;4467550;32;33078;-69
2022/11/10 11:25:45;;;;;;;;;;;;;;;16.07;58.09;100444.28;4460615;32;32957;-69
2022/11/10 11:28:56;;;;;;;;;;;;;;;15.97;59.02;100437.13;4477841;32;34351;-68
2022/11/10 11:31:49;;;;;;;;;;;;;;;15.74;59.23;100437.25;4455377;32;33976;-68
2022/11/10 11:34:53;;;;;;;;;;;;;;;16.05;58.43;100440.87;4479872;32;33256;-68
2022/11/10 11:37:51;;;;;;;;;;;;;;;15.14;60.88;100444.06;4470847;32;32790;-70
2022/11/10 11:40:55;;;;;;;;;;;;;;;14.90;61.41;100452.34;4461876;32;34018;-68
2022/11/10 11:43:59;;;;;;;;;;;;;;;15.25;60.61;100453.97;4470770;32;34410;-69
2022/11/10 11:46:49;;;;;;;;;;;;;;;15.46;60.62;100451.31;4468240;31;34183;-68
2022/11/10 11:49:40;;;;;;;;;;;;;;;15.46;59.88;100449.47;4463117;32;34055;-68
2022/11/10 11:52:36;;;;;;;;;;;;;;;15.41;59.96;100457.13;4465559;32;33045;-69
2022/11/10 11:55:25;;;;;;;;;;;;;;;16.08;57.79;100458.63;4478261;32;35068;-69
2022/11/10 11:58:23;;;;;;;;;;;;;;;15.58;59.11;100456.53;4472832;32;33355;-68
2022/11/10 12:01:19;;;;;;;;;;;;;;;16.02;58.13;100459.19;4477452;32;34396;-68
2022/11/10 12:04:13;;;;;;;;;;;;;;;16.18;57.67;100455.97;4477245;32;34511;-68
2022/11/10 12:07:28;;;;;;;;;;;;;;;15.84;58.60;100453.50;4476934;32;34366;-68
2022/11/10 12:10:40;;;;;;;;;;;;;;;15.14;60.36;100463.81;4453238;32;31873;-69
2022/11/10 12:13:29;;;;;;;;;;;;;;;15.35;59.59;100466.56;4474116;31;32839;-69
2022/11/10 12:16:14;;;;;;;;;;;;;;;15.36;59.62;100462.03;4457998;32;32736;-69
2022/11/10 12:19:06;;;;;;;;;;;;;;;15.71;58.62;100461.78;4473412;32;34086;-71
2022/11/10 12:21:55;;;;;;;;;;;;;;;15.71;58.95;100475.28;4479886;32;33048;-69
2022/11/10 12:24:52;;;;;;;;;;;;;;;15.95;57.99;100475.03;4474958;32;34055;-67
2022/11/10 12:27:42;;;;;;;;;;;;;;;15.11;60.74;100473.97;4460669;32;34332;-66
2022/11/10 12:30:27;;;;;;;;;;;;;;;15.47;59.48;100475.47;4460077;32;34612;-67
2022/11/10 12:33:16;;;;;;;;;;;;;;;15.47;58.97;100477.31;4458870;32;33368;-66
2022/11/10 12:36:04;;;;;;;;;;;;;;;15.41;59.14;100486.78;4476568;32;34100;-66
2022/11/10 12:38:53;;;;;;;;;;;;;;;15.61;58.81;100496.75;4464491;32;34492;-76
2022/11/10 12:41:45;;;;;;;;;;;;;;;14.55;62.06;100499.16;4456945;32;32736;-72
2022/11/10 12:44:34;;;;;;;;;;;;;;;14.87;61.99;100498.41;4460900;32;33377;-66
2022/11/10 12:47:19;;;;;;;;;;;;;;;14.78;62.04;100489.22;4462792;32;32454;-66
2022/11/10 12:50:13;;;;;;;;;;;;;;;15.61;59.17;100496.75;4464059;32;35062;-70
2022/11/10 12:53:05;;;;;;;;;;;;;;;15.28;60.33;100500.44;4460715;32;34888;-74
2022/11/10 12:55:58;;;;;;;;;;;;;;;14.83;61.16;100508.59;4468072;31;34374;-75
2022/11/10 12:58:44;;;;;;;;;;;;;;;15.22;60.30;100500.94;4471723;32;32956;-73
2022/11/10 13:01:30;;;;;;;;;;;;;;;14.54;62.34;100496.56;4474332;32;35127;-74
2022/11/10 13:04:16;;;;;;;;;;;;;;;15.13;61.29;100504.38;4476659;32;32959;-73
2022/11/10 13:07:02;;;;;;;;;;;;;;;15.52;59.54;100505.63;4470976;32;33226;-71
2022/11/10 13:09:53;;;;;;;;;;;;;;;15.46;59.29;100511.53;4472785;32;32954;-71
2022/11/10 13:12:52;;;;;;;;;;;;;;;15.76;58.46;100508.16;4458656;32;33910;-73
2022/11/10 13:15:38;;;;;;;;;;;;;;;15.64;58.74;100508.28;4457538;32;33567;-74
2022/11/10 13:18:30;;;;;;;;;;;;;;;15.65;59.00;100515.41;4469146;32;32699;-75
2022/11/10 13:21:16;;;;;;;;;;;;;;;15.70;58.56;100515.91;4471290;32;32712;-76
2022/11/10 13:24:02;;;;;;;;;;;;;;;15.27;59.92;100522.13;4477099;32;33163;-75
2022/11/10 13:26:54;;;;;;;;;;;;;;;15.11;60.15;100515.28;4468846;32;32467;-74
2022/11/10 13:29:46;;;;;;;;;;;;;;;15.47;59.75;100518.63;4463549;32;31474;-73
2022/11/10 13:32:34;;;;;;;;;;;;;;;15.06;60.44;100527.44;4472746;32;34140;-72
2022/11/10 13:35:26;;;;;;;;;;;;;;;15.44;59.27;100529.69;4454888;32;33712;-74
2022/11/10 13:38:30;;;;;;;;;;;;;;;14.81;61.13;100529.41;4466042;32;34594;-73
2022/11/10 13:41:16;;;;;;;;;;;;;;;14.98;60.89;100541.53;4470160;32;32503;-72
2022/11/10 13:44:19;;;;;;;;;;;;;;;14.83;60.54;100524.75;4468507;32;32453;-73
2022/11/10 13:47:08;;;;;;;;;;;;;;;15.14;60.44;100539.31;4471821;32;34699;-74
2022/11/10 13:50:12;;;;;;;;;;;;;;;15.36;59.52;100533.00;4469490;32;34482;-76
2022/11/10 13:52:57;;;;;;;;;;;;;;;14.15;63.37;100544.47;4468910;32;33432;-72
2022/11/10 13:55:51;;;;;;;;;;;;;;;14.13;63.13;100547.28;4473343;32;32906;-69
2022/11/10 13:58:39;;;;;;;;;;;;;;;14.93;60.96;100545.56;4472651;32;33006;-71
2022/11/10 14:01:26;;;;;;;;;;;;;;;14.76;61.04;100550.47;4458547;32;32707;-69
2022/11/10 14:04:31;;;;;;;;;;;;;;;15.16;60.32;100547.28;4468715;32;33269;-69
2022/11/10 14:07:19;;;;;;;;;;;;;;;15.06;60.82;100552.56;4467665;32;34035;-68
2022/11/10 14:10:28;;;;;;;;;;;;;;;14.84;60.92;100547.19;4472723;32;32134;-71
2022/11/10 14:13:18;;;;;;;;;;;;;;;14.73;61.47;100556.09;4466100;32;32863;-74
2022/11/10 14:16:11;;;;;;;;;;;;;;;15.17;60.03;100564.31;4468637;32;33547;-71
2022/11/10 14:18:59;;;;;;;;;;;;;;;14.99;61.06;100566.63;4474877;32;34817;-71
2022/11/10 14:21:48;;;;;;;;;;;;;;;15.19;60.37;100563.22;4462614;32;34493;-74
2022/11/10 14:24:50;;;;;;;;;;;;;;;15.52;59.44;100567.69;4456479;32;32686;-69
2022/11/10 14:27:36;;;;;;;;;;;;;;;14.74;61.66;100565.06;4455744;32;33007;-68
2022/11/10 14:30:25;;;;;;;;;;;;;;;14.27;62.87;100575.81;4473939;32;35026;-68
2022/11/10 14:33:12;;;;;;;;;;;;;;;14.17;63.69;100590.97;4471269;32;34765;-72
2022/11/10 14:35:59;;;;;;;;;;;;;;;14.75;61.68;100580.25;4470197;32;34687;-71
2022/11/10 14:38:44;;;;;;;;;;;;;;;14.59;62.54;100586.84;4457764;32;32119;-68
2022/11/10 14:41:30;;;;;;;;;;;;;;;14.43;63.10;100589.81;4470583;32;32653;-68
2022/11/10 14:44:20;;;;;;;;;;;;;;;15.17;60.41;100585.87;4472765;32;35381;-68
2022/11/10 14:47:12;;;;;;;;;;;;;;;14.75;61.68;100596.41;4471884;32;34834;-68